El Jadida, Morocco

4:02 PM WEST on August 30, 2014 (GMT +0100)
Mohamed V | Change Station
CLOSE
Current Station
Airport
Location: Nouasseur,
Elevation: 676 ft
Nearby Weather Stations

Elev 676 ft 33.37 °N, 7.59 °W | Updated 2 minutes ago

Clear
Clear
84 °F
Feels Like 85 °F
N
20
Wind Variable Wind from North

Today
High -- | Low -- °F
--% Chance of Precip.
Yesterday
High -- | Low -- °F
Precip. -- in
7:06 AM 8:02 PM
Waxing Crescent, 22% visible
Pressure 29.98 in
Visibility -9999.0 miles
Clouds
Heat Index 85 °F
Dew Point 63 °F
Humidity 48%
Rainfall 0.00 in
Snow Depth Not available.
UV Not available.
Pollen Not available.
Air Quality Not available.
Flu Activity Not available.
METAR GMMN 301500Z 35017KT CAVOK 29/17 Q1015 NOSIG

More Conditions Fewer Conditions

Pressure 29.98 in
Visibility -9999.0 miles
Clouds
Heat Index 85 °F
Dew Point 63 °F
Humidity 48%
Rainfall 0.00 in
Snow Depth Not available.
UV Not available.
Pollen Not available.
Air Quality Not available.
Flu Activity Not available.
METAR GMMN 301500Z 35017KT CAVOK 29/17 Q1015 NOSIG

More Conditions Fewer Conditions

10-Day Weather Forecast

Almanac

Astronomy

Aug. 30, 2014 Rise Set
Actual Time 7:06 AM WEST 8:02 PM WEST
Civil Twilight 6:41 AM WEST 8:27 PM WEST
Nautical Twilight 6:11 AM WEST 8:57 PM WEST
Astronomical Twilight 5:40 AM WEST 9:28 PM WEST
Moon 11:25 AM WEST 10:44 PM WEST
Length of Visible Light 13h 45m
Length of Day
12h 55m
Tomorrow will be 1m 57s shorter.
Waxing Crescent, 22% of the Moon is Illuminated
Today
Waxing Crescent
Sep 2
First Quarter
Sep 8
Full
Sep 15
Last Quarter
Sep 24
New

Today's Extremes

Country Highs Country Lows

Community

WunderPhotos

Upload Photos

1,748,536 photos uploaded!

WunderBlogs® & News

Nearby

Snow Depth

Not available.

Earthquake Activity

City Distance Mag. Time & Date
No recent earthquake activity has been reported nearby.
Minimum magnitude displayed is 2.5.

Coastal Water Temperatures

Place Temperature
No Stations Reporting

Nearby Weather Stations